Airports Portugal Francisco de Sá Carneiro Airport

Francisco de Sá Carneiro Airport (LPPR / OPO)

Facts about Francisco de Sá Carneiro Airport

Name Francisco de Sá Carneiro Airport
City Porto
Country Portugal
ICAO code LPPR
IATA code OPO
Elevation 69.4944 meters (228 feet)

Weather

METAR

Metar data retrieved Friday, 19 July 2024 at 23:55 UTC (13 minutes ago)

LPPR 192330Z VRB02KT 0900 R17/1200N FG VV002 17/17 Q1018

Live traffic

Navigraph Charts (account required)